createdAt,value
2023-04-15T00:02:18.641Z,45.33
2023-04-15T00:05:21.060Z,45.38
2023-04-15T00:08:23.645Z,45.39
2023-04-15T00:11:25.858Z,45.38
2023-04-15T00:14:28.126Z,45.38
2023-04-15T00:17:30.983Z,45.35
2023-04-15T00:20:32.999Z,45.35
2023-04-15T00:23:36.809Z,45.38
2023-04-15T00:26:39.078Z,45.39
2023-04-15T00:29:41.212Z,45.27
2023-04-15T00:32:43.261Z,45.28
2023-04-15T00:35:45.305Z,45.25
2023-04-15T00:38:47.361Z,45.28
2023-04-15T00:41:49.801Z,45.25
2023-04-15T00:44:52.026Z,45.22
2023-04-15T00:47:54.386Z,45.25
2023-04-15T00:50:56.738Z,45.26
2023-04-15T00:53:59.317Z,45.12
2023-04-15T00:57:02.110Z,45.19
2023-04-15T01:00:07.920Z,45.18
2023-04-15T01:03:10.037Z,45.18
2023-04-15T01:06:12.375Z,45.22
2023-04-15T01:09:14.618Z,45.26
2023-04-15T01:12:17.872Z,45.27
2023-04-15T01:15:21.273Z,45.20
2023-04-15T01:18:23.806Z,45.18
2023-04-15T01:21:26.552Z,45.25
2023-04-15T01:24:30.300Z,45.17
2023-04-15T01:27:33.081Z,45.21
2023-04-15T01:30:35.545Z,45.17
2023-04-15T01:33:38.666Z,45.21
2023-04-15T01:36:40.938Z,45.22
2023-04-15T01:39:42.961Z,45.17
2023-04-15T01:42:45.094Z,45.21
2023-04-15T01:45:47.073Z,45.21
2023-04-15T01:48:49.161Z,45.18
2023-04-15T01:51:51.186Z,45.16
2023-04-15T01:54:53.257Z,45.25
2023-04-15T01:57:55.283Z,45.19
2023-04-15T02:00:57.630Z,45.20
2023-04-15T02:03:59.794Z,45.17
2023-04-15T02:07:01.979Z,45.16
2023-04-15T02:10:04.238Z,45.16
2023-04-15T02:13:06.351Z,45.16
2023-04-15T02:16:20.657Z,45.20
2023-04-15T02:19:22.700Z,45.19
2023-04-15T02:22:24.712Z,45.19
2023-04-15T02:25:26.743Z,45.21
2023-04-15T02:28:28.863Z,45.22
2023-04-15T02:31:33.911Z,45.22
2023-04-15T02:34:37.707Z,45.23
2023-04-15T02:37:45.698Z,45.20
2023-04-15T02:40:49.630Z,45.19
2023-04-15T02:43:51.659Z,45.16
2023-04-15T02:46:54.813Z,45.22
2023-04-15T02:49:58.542Z,45.22
2023-04-15T02:53:01.687Z,45.23
2023-04-15T02:56:04.037Z,45.21
2023-04-15T02:59:06.109Z,45.22
2023-04-15T03:02:08.447Z,45.23
2023-04-15T03:05:14.489Z,45.22
2023-04-15T03:08:16.539Z,45.18
2023-04-15T03:11:19.541Z,45.19
2023-04-15T03:14:21.804Z,45.20
2023-04-15T03:17:23.835Z,45.19
2023-04-15T03:20:25.912Z,45.21
2023-04-15T03:23:28.082Z,45.21
2023-04-15T03:26:31.640Z,45.22
2023-04-15T03:29:33.884Z,45.20
2023-04-15T03:32:36.010Z,45.22
2023-04-15T03:35:38.431Z,45.21
2023-04-15T03:38:40.550Z,45.22
2023-04-15T03:41:42.526Z,45.19
2023-04-15T03:44:44.601Z,45.22
2023-04-15T03:47:46.706Z,45.22
2023-04-15T03:50:48.721Z,45.25
2023-04-15T03:53:51.108Z,45.26
2023-04-15T03:56:53.113Z,45.30
2023-04-15T03:59:55.310Z,45.31
2023-04-15T04:02:57.538Z,45.32
2023-04-15T04:05:59.872Z,45.37
2023-04-15T04:09:02.123Z,45.35
2023-04-15T04:12:04.372Z,45.40
2023-04-15T04:15:06.963Z,45.41
2023-04-15T04:18:09.036Z,45.41
2023-04-15T04:21:11.554Z,45.42
2023-04-15T04:24:13.673Z,45.48
2023-04-15T04:27:15.992Z,45.47
2023-04-15T04:30:18.056Z,45.51
2023-04-15T04:33:20.132Z,45.53
2023-04-15T04:36:22.223Z,45.55
2023-04-15T04:39:24.259Z,45.55
2023-04-15T04:42:26.394Z,45.56
2023-04-15T04:45:28.428Z,45.57
2023-04-15T04:48:30.433Z,45.61
2023-04-15T04:51:32.677Z,45.64
2023-04-15T04:54:34.773Z,45.61
2023-04-15T04:57:37.660Z,45.69
2023-04-15T05:00:40.935Z,45.77
2023-04-15T05:03:43.084Z,45.07
2023-04-15T05:06:45.195Z,45.48
2023-04-15T05:09:47.431Z,45.90
2023-04-15T05:12:50.434Z,45.99
2023-04-15T05:15:52.532Z,46.06
2023-04-15T05:18:54.624Z,46.15
2023-04-15T05:21:56.625Z,46.09
2023-04-15T05:24:58.710Z,46.52
2023-04-15T05:28:00.871Z,46.44
2023-04-15T05:31:03.034Z,46.38
2023-04-15T05:34:05.365Z,46.42
2023-04-15T05:37:07.792Z,46.38
2023-04-15T05:40:10.599Z,46.38
2023-04-15T05:43:12.676Z,46.38
2023-04-15T05:46:14.758Z,46.37
2023-04-15T05:49:16.800Z,46.41
2023-04-15T05:52:18.803Z,46.28
2023-04-15T05:55:21.209Z,45.73
2023-04-15T05:58:23.388Z,45.41
2023-04-15T06:01:26.018Z,45.34
2023-04-15T06:04:28.372Z,45.12
2023-04-15T06:07:30.918Z,44.87
2023-04-15T06:10:36.477Z,44.46
2023-04-15T06:13:38.605Z,44.13
2023-04-15T06:16:40.886Z,44.05
2023-04-15T06:19:43.016Z,43.90
2023-04-15T06:22:45.069Z,43.74
2023-04-15T06:25:47.104Z,43.60
2023-04-15T06:28:49.170Z,43.51
2023-04-15T06:31:51.675Z,43.54
2023-04-15T06:34:53.720Z,43.40
2023-04-15T06:37:55.785Z,43.33
2023-04-15T06:40:57.794Z,43.29
2023-04-15T06:43:59.811Z,43.23
2023-04-15T06:47:02.152Z,43.15
2023-04-15T06:50:04.468Z,43.22
2023-04-15T06:53:06.560Z,42.83
2023-04-15T06:56:11.617Z,42.60
2023-04-15T06:59:14.212Z,42.60
2023-04-15T07:02:16.428Z,42.52
2023-04-15T07:05:18.992Z,42.81
2023-04-15T07:08:21.207Z,42.52
2023-04-15T07:11:23.231Z,42.59
2023-04-15T07:14:25.322Z,42.31
2023-04-15T07:17:27.821Z,42.05
2023-04-15T07:20:29.963Z,41.76
2023-04-15T07:23:32.166Z,41.96
2023-04-15T07:26:34.207Z,41.79
2023-04-15T07:29:36.225Z,41.93
2023-04-15T07:32:38.458Z,41.99
2023-04-15T07:35:40.530Z,41.26
2023-04-15T07:38:43.129Z,41.05
2023-04-15T07:41:45.384Z,41.13
2023-04-15T07:44:47.438Z,41.38
2023-04-15T07:47:50.808Z,40.94
2023-04-15T07:50:53.424Z,40.91
2023-04-15T07:53:56.194Z,40.78
2023-04-15T07:56:58.966Z,40.34
2023-04-15T08:00:01.122Z,40.55
2023-04-15T08:03:03.976Z,39.96
2023-04-15T08:06:06.531Z,39.95
2023-04-15T08:09:08.507Z,39.82
2023-04-15T08:12:13.343Z,39.78
2023-04-15T08:15:15.724Z,39.62
2023-04-15T08:18:17.881Z,40.02
2023-04-15T08:21:21.080Z,40.30
2023-04-15T08:24:26.142Z,40.52
2023-04-15T08:27:28.398Z,40.66
2023-04-15T08:30:30.514Z,40.86
2023-04-15T08:33:32.929Z,40.96
2023-04-15T08:36:34.995Z,41.14
2023-04-15T08:39:37.743Z,41.17
2023-04-15T08:42:45.055Z,41.29
2023-04-15T08:45:48.678Z,41.22
2023-04-15T08:48:51.228Z,40.98
2023-04-15T08:51:53.575Z,41.00
2023-04-15T08:55:00.418Z,40.88
2023-04-15T08:58:03.255Z,41.30
2023-04-15T09:01:05.523Z,41.29
2023-04-15T09:04:08.203Z,41.10
2023-04-15T09:07:10.431Z,41.04
2023-04-15T09:10:12.697Z,41.13
2023-04-15T09:13:14.901Z,41.16
2023-04-15T09:16:17.077Z,41.14
2023-04-15T09:19:23.931Z,41.14
2023-04-15T09:22:32.933Z,41.20
2023-04-15T09:25:35.241Z,41.23
2023-04-15T09:28:43.505Z,41.40
2023-04-15T09:31:45.596Z,41.35
2023-04-15T09:34:48.130Z,41.49
2023-04-15T09:37:51.324Z,41.55
2023-04-15T09:40:53.504Z,41.47
2023-04-15T09:43:55.651Z,41.71
2023-04-15T09:46:57.840Z,41.54
2023-04-15T09:50:00.653Z,41.60
2023-04-15T09:53:04.921Z,41.50
2023-04-15T09:56:08.820Z,41.52
2023-04-15T09:59:11.178Z,41.64
2023-04-15T10:02:14.193Z,41.83
2023-04-15T10:05:17.890Z,42.03
2023-04-15T10:08:21.944Z,41.91
2023-04-15T10:11:24.348Z,41.98
2023-04-15T10:14:28.270Z,42.02
2023-04-15T10:17:35.525Z,42.06
2023-04-15T10:20:38.741Z,42.10
2023-04-15T10:23:40.831Z,42.16
2023-04-15T10:26:43.600Z,42.39
2023-04-15T10:29:46.830Z,42.58
2023-04-15T10:32:50.002Z,42.67
2023-04-15T10:35:54.201Z,42.74
2023-04-15T10:38:56.288Z,42.90
2023-04-15T10:42:10.285Z,43.12
2023-04-15T10:45:18.243Z,43.10
2023-04-15T10:48:20.472Z,43.16
2023-04-15T10:51:32.425Z,43.25
2023-04-15T10:54:38.968Z,43.18
2023-04-15T10:57:42.836Z,43.16
2023-04-15T11:00:54.151Z,43.47
2023-04-15T11:03:56.651Z,43.31
2023-04-15T11:07:08.037Z,43.44
2023-04-15T11:10:31.271Z,43.48
2023-04-15T11:13:34.195Z,43.60
2023-04-15T11:16:44.859Z,43.54
2023-04-15T11:19:47.118Z,43.67
2023-04-15T11:23:08.004Z,43.84
2023-04-15T11:26:16.173Z,43.98
2023-04-15T11:29:19.877Z,44.04
2023-04-15T11:32:22.498Z,43.93
2023-04-15T11:35:24.860Z,44.17
2023-04-15T11:38:28.059Z,44.09
2023-04-15T11:41:30.336Z,43.96
2023-04-15T11:44:32.324Z,44.03
2023-04-15T11:47:34.372Z,44.01
2023-04-15T11:50:37.926Z,43.95
2023-04-15T11:53:46.073Z,43.90
2023-04-15T11:56:52.618Z,44.30
2023-04-15T11:59:56.103Z,44.25
2023-04-15T12:03:19.188Z,44.10
2023-04-15T12:06:23.428Z,43.56
2023-04-15T12:09:25.453Z,39.17
2023-04-15T12:12:28.789Z,40.36
2023-04-15T12:15:30.857Z,36.75
2023-04-15T12:18:33.125Z,35.96
2023-04-15T12:21:38.133Z,37.24
2023-04-15T12:24:44.085Z,36.95
2023-04-15T12:27:52.164Z,36.92
2023-04-15T12:30:54.360Z,36.14
2023-04-15T12:33:57.958Z,34.12
2023-04-15T12:37:02.793Z,33.26
2023-04-15T12:40:09.264Z,35.34
2023-04-15T12:43:11.561Z,37.25
2023-04-15T12:46:14.188Z,38.27
2023-04-15T12:49:19.768Z,38.89
2023-04-15T12:52:22.169Z,39.37
2023-04-15T12:55:24.187Z,39.92
2023-04-15T12:58:26.290Z,41.03
2023-04-15T13:01:29.330Z,41.29
2023-04-15T13:04:31.909Z,41.20
2023-04-15T13:07:34.174Z,41.42
2023-04-15T13:10:36.604Z,41.95
2023-04-15T13:13:38.768Z,42.16
2023-04-15T13:16:41.506Z,42.30
2023-04-15T13:19:43.693Z,42.43
2023-04-15T13:22:45.798Z,42.60
2023-04-15T13:25:47.887Z,42.68
2023-04-15T13:28:49.957Z,43.12
2023-04-15T13:31:52.074Z,43.29
2023-04-15T13:34:56.371Z,43.58
2023-04-15T13:37:58.416Z,43.58
2023-04-15T13:41:00.450Z,43.33
2023-04-15T13:44:02.869Z,43.47
2023-04-15T13:47:05.265Z,43.76
2023-04-15T13:50:07.718Z,43.99
2023-04-15T13:53:09.724Z,44.23
2023-04-15T13:56:11.842Z,44.21
2023-04-15T13:59:14.000Z,43.88
2023-04-15T14:02:16.774Z,43.75
2023-04-15T14:05:18.907Z,43.69
2023-04-15T14:08:21.155Z,43.71
2023-04-15T14:11:23.198Z,43.67
2023-04-15T14:14:25.621Z,43.71
2023-04-15T14:17:27.714Z,43.78
2023-04-15T14:20:29.798Z,43.87
2023-04-15T14:23:31.940Z,44.06
2023-04-15T14:26:34.081Z,44.53
2023-04-15T14:29:36.327Z,45.45
2023-04-15T14:32:38.400Z,46.22
2023-04-15T14:35:40.700Z,46.46
2023-04-15T14:38:42.779Z,46.44
2023-04-15T14:41:45.151Z,46.64
2023-04-15T14:44:47.291Z,47.05
2023-04-15T14:47:49.441Z,47.21
2023-04-15T14:50:51.857Z,47.44
2023-04-15T14:53:53.960Z,47.47
2023-04-15T14:56:56.288Z,47.40
2023-04-15T14:59:59.212Z,47.48
2023-04-15T15:03:01.789Z,47.54
2023-04-15T15:06:04.098Z,47.52
2023-04-15T15:09:06.588Z,47.54
2023-04-15T15:12:08.895Z,47.54
2023-04-15T15:15:25.043Z,47.47
2023-04-15T15:18:31.496Z,47.08
2023-04-15T15:21:33.654Z,47.47
2023-04-15T15:24:35.810Z,47.42
2023-04-15T15:27:38.386Z,47.48
2023-04-15T15:30:40.646Z,47.33
2023-04-15T15:33:42.720Z,47.55
2023-04-15T15:36:44.874Z,47.61
2023-04-15T15:39:47.016Z,47.57
2023-04-15T15:42:50.832Z,47.70
2023-04-15T15:45:55.394Z,47.77
2023-04-15T15:48:58.184Z,47.60
2023-04-15T15:52:00.776Z,41.78
2023-04-15T15:55:02.979Z,36.88
2023-04-15T15:58:05.073Z,39.88
2023-04-15T16:01:07.188Z,35.22
2023-04-15T16:04:10.305Z,37.31
2023-04-15T16:07:13.070Z,35.45
2023-04-15T16:10:15.226Z,35.42
2023-04-15T16:13:17.396Z,36.79
2023-04-15T16:16:19.507Z,36.11
2023-04-15T16:19:21.882Z,35.31
2023-04-15T16:22:24.050Z,34.94
2023-04-15T16:25:26.255Z,33.21
2023-04-15T16:28:28.465Z,31.10
2023-04-15T16:31:31.294Z,31.06
2023-04-15T16:34:33.400Z,29.77
2023-04-15T16:37:36.101Z,27.45
2023-04-15T16:40:38.429Z,28.96
2023-04-15T16:43:40.579Z,29.84
2023-04-15T16:46:42.684Z,31.54
2023-04-15T16:49:44.768Z,33.01
2023-04-15T16:52:46.835Z,34.68
2023-04-15T16:55:48.887Z,36.24
2023-04-15T16:58:50.974Z,37.36
2023-04-15T17:01:54.427Z,38.11
2023-04-15T17:04:56.547Z,38.62
2023-04-15T17:07:59.045Z,39.03
2023-04-15T17:11:01.271Z,39.52
2023-04-15T17:14:03.609Z,39.81
2023-04-15T17:17:06.899Z,40.17
2023-04-15T17:20:09.375Z,40.32
2023-04-15T17:23:11.468Z,40.59
2023-04-15T17:26:13.736Z,40.86
2023-04-15T17:29:15.814Z,41.09
2023-04-15T17:32:18.058Z,41.14
2023-04-15T17:35:20.539Z,41.28
2023-04-15T17:38:22.665Z,41.49
2023-04-15T17:41:25.315Z,41.55
2023-04-15T17:44:27.396Z,41.90
2023-04-15T17:47:29.674Z,42.07
2023-04-15T17:50:31.733Z,42.05
2023-04-15T17:53:34.064Z,42.24
2023-04-15T17:56:36.150Z,42.35
2023-04-15T17:59:38.235Z,42.48
2023-04-15T18:02:40.970Z,42.68
2023-04-15T18:05:43.551Z,42.74
2023-04-15T18:08:45.617Z,42.91
2023-04-15T18:11:48.693Z,42.96
2023-04-15T18:14:51.034Z,43.06
2023-04-15T18:17:53.485Z,43.11
2023-04-15T18:20:55.581Z,43.19
2023-04-15T18:23:57.679Z,43.29
2023-04-15T18:26:59.771Z,43.35
2023-04-15T18:30:01.919Z,43.45
2023-04-15T18:33:04.648Z,43.55
2023-04-15T18:36:06.886Z,43.64
2023-04-15T18:39:09.035Z,43.79
2023-04-15T18:42:11.095Z,43.89
2023-04-15T18:45:13.229Z,43.87
2023-04-15T18:48:16.016Z,44.16
2023-04-15T18:51:18.068Z,43.90
2023-04-15T18:54:20.177Z,44.19
2023-04-15T18:57:25.653Z,44.13
2023-04-15T19:00:33.406Z,44.21
2023-04-15T19:03:35.702Z,44.29
2023-04-15T19:06:38.144Z,44.40
2023-04-15T19:09:41.046Z,44.43
2023-04-15T19:12:43.305Z,44.50
2023-04-15T19:15:45.441Z,44.77
2023-04-15T19:18:47.506Z,44.54
2023-04-15T19:21:50.324Z,44.17
2023-04-15T19:24:52.672Z,44.29
2023-04-15T19:27:54.726Z,44.38
2023-04-15T19:30:57.925Z,44.44
2023-04-15T19:34:00.157Z,44.62
2023-04-15T19:37:02.265Z,44.61
2023-04-15T19:40:04.742Z,44.54
2023-04-15T19:43:06.812Z,44.61
2023-04-15T19:46:09.089Z,44.67
2023-04-15T19:49:11.623Z,44.65
2023-04-15T19:52:13.695Z,44.58
2023-04-15T19:55:15.847Z,44.85
2023-04-15T19:58:17.992Z,44.55
2023-04-15T20:01:20.849Z,44.74
2023-04-15T20:04:23.101Z,44.89
2023-04-15T20:07:25.248Z,44.93
2023-04-15T20:10:27.512Z,44.96
2023-04-15T20:13:29.658Z,45.35
2023-04-15T20:16:31.823Z,45.03
2023-04-15T20:19:33.917Z,45.14
2023-04-15T20:22:36.080Z,45.20
2023-04-15T20:25:38.217Z,45.16
2023-04-15T20:28:40.446Z,45.23
2023-04-15T20:31:42.652Z,45.29
2023-04-15T20:34:44.846Z,45.39
2023-04-15T20:37:48.358Z,45.35
2023-04-15T20:40:50.387Z,45.51
2023-04-15T20:43:52.468Z,45.33
2023-04-15T20:46:54.567Z,45.49
2023-04-15T20:49:56.799Z,45.57
2023-04-15T20:52:58.892Z,45.64
2023-04-15T20:56:01.030Z,45.45
2023-04-15T20:59:03.407Z,45.62
2023-04-15T21:02:05.695Z,45.54
2023-04-15T21:05:09.029Z,45.61
2023-04-15T21:08:11.194Z,45.60
2023-04-15T21:11:18.900Z,45.62
2023-04-15T21:14:30.923Z,45.72
2023-04-15T21:17:35.104Z,45.80
2023-04-15T21:20:37.240Z,45.80
2023-04-15T21:23:39.472Z,45.96
2023-04-15T21:26:41.576Z,45.96
2023-04-15T21:29:43.906Z,45.96
2023-04-15T21:32:46.029Z,46.04
2023-04-15T21:35:48.353Z,45.96
2023-04-15T21:38:50.674Z,46.04
2023-04-15T21:41:52.817Z,46.16
2023-04-15T21:44:54.954Z,46.25
2023-04-15T21:48:07.057Z,46.28
2023-04-15T21:51:10.349Z,46.27
2023-04-15T21:54:12.437Z,46.33
2023-04-15T21:57:14.802Z,46.37
2023-04-15T22:00:17.380Z,46.47
2023-04-15T22:03:19.751Z,46.38
2023-04-15T22:06:21.938Z,46.41
2023-04-15T22:09:24.047Z,46.46
2023-04-15T22:12:26.262Z,46.51
2023-04-15T22:15:29.051Z,46.60
2023-04-15T22:18:31.246Z,46.46
2023-04-15T22:21:33.296Z,46.64
2023-04-15T22:24:40.315Z,46.71
2023-04-15T22:27:43.269Z,46.73
2023-04-15T22:30:45.580Z,46.77
2023-04-15T22:33:47.657Z,46.73
2023-04-15T22:36:53.503Z,46.81
2023-04-15T22:39:55.778Z,46.77
2023-04-15T22:42:57.928Z,46.91
2023-04-15T22:46:00.886Z,46.96
2023-04-15T22:49:03.155Z,46.91
2023-04-15T22:52:05.760Z,46.97
2023-04-15T22:55:08.566Z,46.94
2023-04-15T22:58:10.701Z,47.04
2023-04-15T23:01:13.006Z,47.09
2023-04-15T23:04:23.555Z,47.10
2023-04-15T23:07:27.849Z,47.03
2023-04-15T23:10:29.968Z,47.05
2023-04-15T23:13:32.337Z,47.14
2023-04-15T23:16:34.541Z,47.18
2023-04-15T23:19:36.709Z,47.18
2023-04-15T23:22:39.004Z,47.18
2023-04-15T23:25:42.093Z,47.22
2023-04-15T23:28:44.135Z,47.26
2023-04-15T23:31:46.279Z,47.28
2023-04-15T23:34:48.456Z,47.18
2023-04-15T23:37:50.760Z,47.28
2023-04-15T23:40:52.920Z,47.31
2023-04-15T23:43:54.990Z,47.30
2023-04-15T23:46:57.116Z,47.24
2023-04-15T23:49:59.185Z,47.37
2023-04-15T23:53:01.813Z,47.33
2023-04-15T23:56:04.111Z,47.28
2023-04-15T23:59:06.250Z,47.37
